8NC0 weather

Vidant Bertie Hospital Heliport
Windsor, North Carolina, United States

Public forecast

Using degrees Fahrenheit for public forecast. Weather courtesy of forecast.io.

Closest aviation weather report (METAR) to Vidant Bertie Hospital Heliport

Closest report is Northeastern Regional Airport, 17.7 nm (32.9 km) E. Retrieved 2020/02/21 05:55 UTC (17 minutes ago):

KEDE 210555Z AUTO 01005KT 4SM UP OVC004 01/01 A3030 RMK AO2 P0001 60027 T00130013 10015 20013 400840013

Closest aviation forecast (TAF) to Vidant Bertie Hospital Heliport

Closest forecast is Pitt Greenville Airport, 30.7 nm (56.9 km) SW. Retrieved 2020/02/21 06:39 UTC (0 seconds ago):

TAF KPGV 210537Z 2106/2206 01012G18KT 2SM -SN OVC005 FM210900 01012G18KT 4SM -SN OVC007 FM211100 01012G19KT P6SM OVC025 FM211400 01013G19KT P6SM BKN040 FM211600 01011G18KT P6SM SKC FM212200 02002KT P6SM SKC AMD LTD TO CLD VIS AND WIND